Terminal Aerodrome Forecast
Issued by NWS Bismarck, ND

Home | Current Version | Previous Version | Text Only | Print | Product List | Glossary Off
Versions: 1 2 3 4 5 6 7 8 9 10 11 12 13 14 15 16 17 18 19

000
FTUS43 KBIS 220522
TAFISN
TAF
KISN 220522Z 2206/2306 34012KT P6SM -SHRA BKN090
     FM220900 31005KT P6SM SCT070 BKN130
     FM221400 28013KT P6SM FEW060 FEW200
     FM221600 29019G28KT P6SM FEW070 FEW200
     FM222000 29026G36KT P6SM FEW070 SCT130
     FM230200 32021G30KT P6SM BKN030=

USA.gov is the U.S. government's official web portal to all federal, state and local government web resources and services.